sensor_id;sensor_type;location;lat;lon;timestamp;temperature;humidity
5466;DHT22;2755;50.728;7.108;2023-11-18T00:00:48;2.90;99.90
5466;DHT22;2755;50.728;7.108;2023-11-18T00:03:14;4.00;99.90
5466;DHT22;2755;50.728;7.108;2023-11-18T00:05:40;2.20;99.90
5466;DHT22;2755;50.728;7.108;2023-11-18T00:08:05;3.00;99.90
5466;DHT22;2755;50.728;7.108;2023-11-18T00:10:31;3.00;99.90
5466;DHT22;2755;50.728;7.108;2023-11-18T00:12:57;2.70;99.90
5466;DHT22;2755;50.728;7.108;2023-11-18T00:15:22;2.60;99.90
5466;DHT22;2755;50.728;7.108;2023-11-18T00:17:48;2.50;99.90
5466;DHT22;2755;50.728;7.108;2023-11-18T00:20:13;3.10;99.90
5466;DHT22;2755;50.728;7.108;2023-11-18T00:22:41;3.10;99.90
5466;DHT22;2755;50.728;7.108;2023-11-18T00:25:06;3.70;99.90
5466;DHT22;2755;50.728;7.108;2023-11-18T00:30:06;3.60;99.90
5466;DHT22;2755;50.728;7.108;2023-11-18T00:35:00;3.80;99.90
5466;DHT22;2755;50.728;7.108;2023-11-18T00:37:26;3.80;99.90
5466;DHT22;2755;50.728;7.108;2023-11-18T00:39:52;4.40;99.90
5466;DHT22;2755;50.728;7.108;2023-11-18T00:42:18;3.70;99.90
5466;DHT22;2755;50.728;7.108;2023-11-18T00:44:43;3.00;99.90
5466;DHT22;2755;50.728;7.108;2023-11-18T00:47:09;3.60;99.90
5466;DHT22;2755;50.728;7.108;2023-11-18T00:49:34;3.90;99.90
5466;DHT22;2755;50.728;7.108;2023-11-18T00:52:00;3.50;99.90
5466;DHT22;2755;50.728;7.108;2023-11-18T00:54:26;3.80;99.90
5466;DHT22;2755;50.728;7.108;2023-11-18T00:59:18;3.70;99.90
5466;DHT22;2755;50.728;7.108;2023-11-18T01:01:43;3.20;99.90
5466;DHT22;2755;50.728;7.108;2023-11-18T01:04:09;3.70;99.90
5466;DHT22;2755;50.728;7.108;2023-11-18T01:06:35;4.30;99.90
5466;DHT22;2755;50.728;7.108;2023-11-18T01:09:00;3.70;99.90
5466;DHT22;2755;50.728;7.108;2023-11-18T01:11:26;3.30;99.90
5466;DHT22;2755;50.728;7.108;2023-11-18T01:16:20;3.50;99.90
5466;DHT22;2755;50.728;7.108;2023-11-18T01:21:11;3.70;99.90
5466;DHT22;2755;50.728;7.108;2023-11-18T01:23:38;3.80;99.90
5466;DHT22;2755;50.728;7.108;2023-11-18T01:26:05;4.00;99.90
5466;DHT22;2755;50.728;7.108;2023-11-18T01:28:34;3.20;99.90
5466;DHT22;2755;50.728;7.108;2023-11-18T01:31:04;4.30;99.90
5466;DHT22;2755;50.728;7.108;2023-11-18T01:33:30;3.80;99.90
5466;DHT22;2755;50.728;7.108;2023-11-18T01:35:58;4.00;99.90
5466;DHT22;2755;50.728;7.108;2023-11-18T01:38:23;4.00;99.90
5466;DHT22;2755;50.728;7.108;2023-11-18T01:43:18;4.10;99.90
5466;DHT22;2755;50.728;7.108;2023-11-18T01:48:10;4.10;99.90
5466;DHT22;2755;50.728;7.108;2023-11-18T01:50:40;4.20;99.90
5466;DHT22;2755;50.728;7.108;2023-11-18T01:53:06;4.40;99.90
5466;DHT22;2755;50.728;7.108;2023-11-18T01:55:33;4.20;99.90
5466;DHT22;2755;50.728;7.108;2023-11-18T01:58:00;4.60;99.90
5466;DHT22;2755;50.728;7.108;2023-11-18T02:00:34;4.40;99.90
5466;DHT22;2755;50.728;7.108;2023-11-18T02:05:26;4.30;99.90
5466;DHT22;2755;50.728;7.108;2023-11-18T02:07:52;3.90;99.90
5466;DHT22;2755;50.728;7.108;2023-11-18T02:10:18;4.00;99.90
5466;DHT22;2755;50.728;7.108;2023-11-18T02:15:33;4.10;99.90
5466;DHT22;2755;50.728;7.108;2023-11-18T02:18:02;4.40;99.90
5466;DHT22;2755;50.728;7.108;2023-11-18T02:20:29;4.20;99.90
5466;DHT22;2755;50.728;7.108;2023-11-18T02:22:56;4.90;99.90
5466;DHT22;2755;50.728;7.108;2023-11-18T02:25:24;4.50;99.90
5466;DHT22;2755;50.728;7.108;2023-11-18T02:27:52;4.50;99.90
5466;DHT22;2755;50.728;7.108;2023-11-18T02:30:19;4.50;99.90
5466;DHT22;2755;50.728;7.108;2023-11-18T02:35:29;4.40;99.90
5466;DHT22;2755;50.728;7.108;2023-11-18T02:37:57;4.20;99.90
5466;DHT22;2755;50.728;7.108;2023-11-18T02:40:40;4.50;99.90
5466;DHT22;2755;50.728;7.108;2023-11-18T02:43:09;4.70;99.90
5466;DHT22;2755;50.728;7.108;2023-11-18T02:45:36;4.50;99.90
5466;DHT22;2755;50.728;7.108;2023-11-18T02:48:03;4.40;99.90
5466;DHT22;2755;50.728;7.108;2023-11-18T02:50:29;4.50;99.90
5466;DHT22;2755;50.728;7.108;2023-11-18T02:52:55;4.30;99.90
5466;DHT22;2755;50.728;7.108;2023-11-18T02:55:21;4.50;99.90
5466;DHT22;2755;50.728;7.108;2023-11-18T02:57:48;4.10;99.90
5466;DHT22;2755;50.728;7.108;2023-11-18T03:00:15;4.60;99.90
5466;DHT22;2755;50.728;7.108;2023-11-18T03:02:50;4.40;99.90
5466;DHT22;2755;50.728;7.108;2023-11-18T03:05:17;4.50;99.90
5466;DHT22;2755;50.728;7.108;2023-11-18T03:07:46;4.50;99.90
5466;DHT22;2755;50.728;7.108;2023-11-18T03:10:16;4.50;99.90
5466;DHT22;2755;50.728;7.108;2023-11-18T03:12:53;4.40;99.90
5466;DHT22;2755;50.728;7.108;2023-11-18T03:15:20;4.40;99.90
5466;DHT22;2755;50.728;7.108;2023-11-18T03:17:48;4.50;99.90
5466;DHT22;2755;50.728;7.108;2023-11-18T03:20:15;4.40;99.90
5466;DHT22;2755;50.728;7.108;2023-11-18T03:22:46;4.60;99.90
5466;DHT22;2755;50.728;7.108;2023-11-18T03:25:15;4.30;99.90
5466;DHT22;2755;50.728;7.108;2023-11-18T03:27:41;4.40;99.90
5466;DHT22;2755;50.728;7.108;2023-11-18T03:30:08;4.60;99.90
5466;DHT22;2755;50.728;7.108;2023-11-18T03:32:35;4.50;99.90
5466;DHT22;2755;50.728;7.108;2023-11-18T03:35:02;4.50;99.90
5466;DHT22;2755;50.728;7.108;2023-11-18T03:37:27;4.40;99.90
5466;DHT22;2755;50.728;7.108;2023-11-18T03:39:55;4.50;99.90
5466;DHT22;2755;50.728;7.108;2023-11-18T03:42:21;5.00;99.90
5466;DHT22;2755;50.728;7.108;2023-11-18T03:47:14;4.50;99.90
5466;DHT22;2755;50.728;7.108;2023-11-18T03:49:40;4.70;99.90
5466;DHT22;2755;50.728;7.108;2023-11-18T03:52:06;4.70;99.90
5466;DHT22;2755;50.728;7.108;2023-11-18T03:54:31;4.50;99.90
5466;DHT22;2755;50.728;7.108;2023-11-18T03:56:57;3.80;99.90
5466;DHT22;2755;50.728;7.108;2023-11-18T03:59:23;4.00;99.90
5466;DHT22;2755;50.728;7.108;2023-11-18T04:04:16;4.40;99.90
5466;DHT22;2755;50.728;7.108;2023-11-18T04:06:42;4.50;99.90
5466;DHT22;2755;50.728;7.108;2023-11-18T04:09:07;3.80;99.90
5466;DHT22;2755;50.728;7.108;2023-11-18T04:18:55;4.80;99.90
5466;DHT22;2755;50.728;7.108;2023-11-18T04:21:21;4.20;99.90
5466;DHT22;2755;50.728;7.108;2023-11-18T04:23:47;4.40;99.90
5466;DHT22;2755;50.728;7.108;2023-11-18T04:26:13;4.50;99.90
5466;DHT22;2755;50.728;7.108;2023-11-18T04:28:38;4.30;99.90
5466;DHT22;2755;50.728;7.108;2023-11-18T04:31:04;4.60;99.90
5466;DHT22;2755;50.728;7.108;2023-11-18T04:35:57;4.40;99.90
5466;DHT22;2755;50.728;7.108;2023-11-18T04:38:23;4.00;99.90
5466;DHT22;2755;50.728;7.108;2023-11-18T04:40:49;4.30;99.90
5466;DHT22;2755;50.728;7.108;2023-11-18T04:43:15;4.40;99.90
5466;DHT22;2755;50.728;7.108;2023-11-18T04:45:42;4.40;99.90
5466;DHT22;2755;50.728;7.108;2023-11-18T04:50:34;4.90;99.90
5466;DHT22;2755;50.728;7.108;2023-11-18T04:52:59;4.50;99.90
5466;DHT22;2755;50.728;7.108;2023-11-18T04:57:52;4.70;99.90
5466;DHT22;2755;50.728;7.108;2023-11-18T05:00:17;4.50;99.90
5466;DHT22;2755;50.728;7.108;2023-11-18T05:02:45;4.40;99.90
5466;DHT22;2755;50.728;7.108;2023-11-18T05:05:15;4.20;99.90
5466;DHT22;2755;50.728;7.108;2023-11-18T05:07:42;4.40;99.90
5466;DHT22;2755;50.728;7.108;2023-11-18T05:10:08;4.60;99.90
5466;DHT22;2755;50.728;7.108;2023-11-18T05:12:36;4.70;99.90
5466;DHT22;2755;50.728;7.108;2023-11-18T05:15:02;4.20;99.90
5466;DHT22;2755;50.728;7.108;2023-11-18T05:17:31;4.50;99.90
5466;DHT22;2755;50.728;7.108;2023-11-18T05:19:57;5.50;99.90
5466;DHT22;2755;50.728;7.108;2023-11-18T05:22:22;4.40;99.90
5466;DHT22;2755;50.728;7.108;2023-11-18T05:24:48;4.70;99.90
5466;DHT22;2755;50.728;7.108;2023-11-18T05:27:14;4.50;99.90
5466;DHT22;2755;50.728;7.108;2023-11-18T05:29:40;4.70;99.90
5466;DHT22;2755;50.728;7.108;2023-11-18T05:32:10;3.90;99.90
5466;DHT22;2755;50.728;7.108;2023-11-18T05:37:02;4.30;99.90
5466;DHT22;2755;50.728;7.108;2023-11-18T05:39:27;4.50;99.90
5466;DHT22;2755;50.728;7.108;2023-11-18T05:41:59;4.20;99.90
5466;DHT22;2755;50.728;7.108;2023-11-18T05:44:25;5.40;99.90
5466;DHT22;2755;50.728;7.108;2023-11-18T05:46:57;4.40;99.90
5466;DHT22;2755;50.728;7.108;2023-11-18T05:49:22;4.50;99.90
5466;DHT22;2755;50.728;7.108;2023-11-18T05:51:50;4.40;99.90
5466;DHT22;2755;50.728;7.108;2023-11-18T05:56:43;4.60;99.90
5466;DHT22;2755;50.728;7.108;2023-11-18T05:59:09;4.50;99.90
5466;DHT22;2755;50.728;7.108;2023-11-18T06:01:36;5.10;99.90
5466;DHT22;2755;50.728;7.108;2023-11-18T06:04:03;4.60;99.90
5466;DHT22;2755;50.728;7.108;2023-11-18T06:06:28;4.40;99.90
5466;DHT22;2755;50.728;7.108;2023-11-18T06:08:54;4.70;99.90
5466;DHT22;2755;50.728;7.108;2023-11-18T06:13:49;4.50;99.90
5466;DHT22;2755;50.728;7.108;2023-11-18T06:16:32;4.60;99.90
5466;DHT22;2755;50.728;7.108;2023-11-18T06:18:58;4.60;99.90
5466;DHT22;2755;50.728;7.108;2023-11-18T06:21:25;4.60;99.90
5466;DHT22;2755;50.728;7.108;2023-11-18T06:23:56;4.70;99.90
5466;DHT22;2755;50.728;7.108;2023-11-18T06:26:22;4.90;99.90
5466;DHT22;2755;50.728;7.108;2023-11-18T06:28:49;5.00;99.90
5466;DHT22;2755;50.728;7.108;2023-11-18T06:31:14;4.70;99.90
5466;DHT22;2755;50.728;7.108;2023-11-18T06:33:41;4.70;99.90
5466;DHT22;2755;50.728;7.108;2023-11-18T06:36:18;4.70;99.90
5466;DHT22;2755;50.728;7.108;2023-11-18T06:38:45;5.70;99.90
5466;DHT22;2755;50.728;7.108;2023-11-18T06:41:12;4.40;99.90
5466;DHT22;2755;50.728;7.108;2023-11-18T06:43:39;4.50;99.90
5466;DHT22;2755;50.728;7.108;2023-11-18T06:46:32;5.10;99.90
5466;DHT22;2755;50.728;7.108;2023-11-18T06:49:05;4.80;99.90
5466;DHT22;2755;50.728;7.108;2023-11-18T06:51:33;4.50;99.90
5466;DHT22;2755;50.728;7.108;2023-11-18T06:54:04;5.00;99.90
5466;DHT22;2755;50.728;7.108;2023-11-18T06:56:38;4.90;99.90
5466;DHT22;2755;50.728;7.108;2023-11-18T06:59:07;4.80;99.90
5466;DHT22;2755;50.728;7.108;2023-11-18T07:01:35;5.60;99.90
5466;DHT22;2755;50.728;7.108;2023-11-18T07:04:01;4.40;99.90
5466;DHT22;2755;50.728;7.108;2023-11-18T07:06:27;4.80;99.90
5466;DHT22;2755;50.728;7.108;2023-11-18T07:08:54;5.00;99.90
5466;DHT22;2755;50.728;7.108;2023-11-18T07:11:20;4.80;99.90
5466;DHT22;2755;50.728;7.108;2023-11-18T07:13:47;4.50;99.90
5466;DHT22;2755;50.728;7.108;2023-11-18T07:16:13;5.10;99.90
5466;DHT22;2755;50.728;7.108;2023-11-18T07:18:40;5.10;99.90
5466;DHT22;2755;50.728;7.108;2023-11-18T07:21:07;5.30;99.90
5466;DHT22;2755;50.728;7.108;2023-11-18T07:23:33;4.80;99.90
5466;DHT22;2755;50.728;7.108;2023-11-18T07:25:59;5.20;99.90
5466;DHT22;2755;50.728;7.108;2023-11-18T07:28:24;5.30;99.90
5466;DHT22;2755;50.728;7.108;2023-11-18T07:30:51;5.30;99.90
5466;DHT22;2755;50.728;7.108;2023-11-18T07:33:17;5.70;99.90
5466;DHT22;2755;50.728;7.108;2023-11-18T07:35:44;5.80;99.90
5466;DHT22;2755;50.728;7.108;2023-11-18T07:38:11;5.80;99.90
5466;DHT22;2755;50.728;7.108;2023-11-18T07:40:37;5.40;99.90
5466;DHT22;2755;50.728;7.108;2023-11-18T07:43:07;5.70;99.90
5466;DHT22;2755;50.728;7.108;2023-11-18T07:45:37;5.90;99.90
5466;DHT22;2755;50.728;7.108;2023-11-18T07:48:06;5.50;99.90
5466;DHT22;2755;50.728;7.108;2023-11-18T07:50:36;5.50;99.90
5466;DHT22;2755;50.728;7.108;2023-11-18T07:53:02;5.30;99.90
5466;DHT22;2755;50.728;7.108;2023-11-18T07:55:29;5.70;99.90
5466;DHT22;2755;50.728;7.108;2023-11-18T07:57:55;5.60;99.90
5466;DHT22;2755;50.728;7.108;2023-11-18T08:00:21;5.70;99.90
5466;DHT22;2755;50.728;7.108;2023-11-18T08:05:12;5.10;99.90
5466;DHT22;2755;50.728;7.108;2023-11-18T08:07:41;5.20;99.50
5466;DHT22;2755;50.728;7.108;2023-11-18T08:10:09;5.30;99.60
5466;DHT22;2755;50.728;7.108;2023-11-18T08:15:04;6.00;97.80
5466;DHT22;2755;50.728;7.108;2023-11-18T08:17:33;5.40;95.90
5466;DHT22;2755;50.728;7.108;2023-11-18T08:19:59;5.80;98.20
5466;DHT22;2755;50.728;7.108;2023-11-18T08:22:25;6.10;95.20
5466;DHT22;2755;50.728;7.108;2023-11-18T08:24:50;6.00;95.80
5466;DHT22;2755;50.728;7.108;2023-11-18T08:27:16;6.00;93.10
5466;DHT22;2755;50.728;7.108;2023-11-18T08:29:42;6.40;94.40
5466;DHT22;2755;50.728;7.108;2023-11-18T08:32:08;5.80;92.00
5466;DHT22;2755;50.728;7.108;2023-11-18T08:34:35;6.20;91.10
5466;DHT22;2755;50.728;7.108;2023-11-18T08:37:06;6.20;92.20
5466;DHT22;2755;50.728;7.108;2023-11-18T08:39:32;6.20;92.20
5466;DHT22;2755;50.728;7.108;2023-11-18T08:41:58;6.60;92.30
5466;DHT22;2755;50.728;7.108;2023-11-18T08:44:24;6.60;87.00
5466;DHT22;2755;50.728;7.108;2023-11-18T08:46:51;6.10;90.40
5466;DHT22;2755;50.728;7.108;2023-11-18T08:49:20;6.40;87.20
5466;DHT22;2755;50.728;7.108;2023-11-18T08:51:50;6.20;82.90
5466;DHT22;2755;50.728;7.108;2023-11-18T08:54:24;6.60;80.60
5466;DHT22;2755;50.728;7.108;2023-11-18T08:56:54;5.80;85.60
5466;DHT22;2755;50.728;7.108;2023-11-18T08:59:21;6.40;80.70
5466;DHT22;2755;50.728;7.108;2023-11-18T09:01:53;6.20;83.00
5466;DHT22;2755;50.728;7.108;2023-11-18T09:04:24;7.00;82.00
5466;DHT22;2755;50.728;7.108;2023-11-18T09:06:51;6.50;76.70
5466;DHT22;2755;50.728;7.108;2023-11-18T09:11:52;6.60;73.20
5466;DHT22;2755;50.728;7.108;2023-11-18T09:14:18;6.60;73.00
5466;DHT22;2755;50.728;7.108;2023-11-18T09:16:44;6.90;69.10
5466;DHT22;2755;50.728;7.108;2023-11-18T09:19:10;6.60;71.10
5466;DHT22;2755;50.728;7.108;2023-11-18T09:21:36;6.60;68.70
5466;DHT22;2755;50.728;7.108;2023-11-18T09:24:02;5.70;71.20
5466;DHT22;2755;50.728;7.108;2023-11-18T09:26:33;7.30;69.30
5466;DHT22;2755;50.728;7.108;2023-11-18T09:29:00;6.30;70.50
5466;DHT22;2755;50.728;7.108;2023-11-18T09:33:52;6.90;71.40
5466;DHT22;2755;50.728;7.108;2023-11-18T09:36:19;6.50;68.80
5466;DHT22;2755;50.728;7.108;2023-11-18T09:38:46;6.50;69.40
5466;DHT22;2755;50.728;7.108;2023-11-18T09:41:15;6.20;66.10
5466;DHT22;2755;50.728;7.108;2023-11-18T09:43:43;6.80;66.20
5466;DHT22;2755;50.728;7.108;2023-11-18T09:46:14;7.00;61.10
5466;DHT22;2755;50.728;7.108;2023-11-18T09:48:48;7.70;61.70
5466;DHT22;2755;50.728;7.108;2023-11-18T09:51:26;6.80;60.50
5466;DHT22;2755;50.728;7.108;2023-11-18T09:53:59;6.50;63.50
5466;DHT22;2755;50.728;7.108;2023-11-18T09:59:18;6.50;62.30
5466;DHT22;2755;50.728;7.108;2023-11-18T10:01:53;7.20;63.00
5466;DHT22;2755;50.728;7.108;2023-11-18T10:04:23;6.70;57.10
5466;DHT22;2755;50.728;7.108;2023-11-18T10:06:53;6.50;62.40
5466;DHT22;2755;50.728;7.108;2023-11-18T10:11:54;7.40;62.90
5466;DHT22;2755;50.728;7.108;2023-11-18T10:14:26;6.90;59.30
5466;DHT22;2755;50.728;7.108;2023-11-18T10:16:52;6.90;57.20
5466;DHT22;2755;50.728;7.108;2023-11-18T10:21:46;7.00;56.50
5466;DHT22;2755;50.728;7.108;2023-11-18T10:24:15;7.70;57.10
5466;DHT22;2755;50.728;7.108;2023-11-18T10:26:54;7.10;55.60
5466;DHT22;2755;50.728;7.108;2023-11-18T10:29:26;7.10;55.80
5466;DHT22;2755;50.728;7.108;2023-11-18T10:32:04;7.20;49.50
5466;DHT22;2755;50.728;7.108;2023-11-18T10:34:34;7.30;47.00
5466;DHT22;2755;50.728;7.108;2023-11-18T10:37:01;7.10;47.50
5466;DHT22;2755;50.728;7.108;2023-11-18T10:39:32;6.60;52.40
5466;DHT22;2755;50.728;7.108;2023-11-18T10:42:00;6.50;46.70
5466;DHT22;2755;50.728;7.108;2023-11-18T10:44:26;7.00;48.60
5466;DHT22;2755;50.728;7.108;2023-11-18T10:46:53;7.20;47.80
5466;DHT22;2755;50.728;7.108;2023-11-18T10:49:20;7.40;48.20
5466;DHT22;2755;50.728;7.108;2023-11-18T10:54:13;6.70;49.90
5466;DHT22;2755;50.728;7.108;2023-11-18T10:56:51;7.20;47.20
5466;DHT22;2755;50.728;7.108;2023-11-18T10:59:22;7.10;49.00
5466;DHT22;2755;50.728;7.108;2023-11-18T11:01:48;7.20;51.50
5466;DHT22;2755;50.728;7.108;2023-11-18T11:06:47;7.50;53.70
5466;DHT22;2755;50.728;7.108;2023-11-18T11:09:24;7.10;48.80
5466;DHT22;2755;50.728;7.108;2023-11-18T11:11:59;7.60;52.80
5466;DHT22;2755;50.728;7.108;2023-11-18T11:14:34;6.90;54.60
5466;DHT22;2755;50.728;7.108;2023-11-18T11:17:07;7.10;54.60
5466;DHT22;2755;50.728;7.108;2023-11-18T11:20:05;7.00;50.40
5466;DHT22;2755;50.728;7.108;2023-11-18T11:23:16;6.80;54.20
5466;DHT22;2755;50.728;7.108;2023-11-18T11:26:25;7.00;51.60
5466;DHT22;2755;50.728;7.108;2023-11-18T11:32:30;6.90;54.50
5466;DHT22;2755;50.728;7.108;2023-11-18T11:35:01;7.00;55.20
5466;DHT22;2755;50.728;7.108;2023-11-18T11:40:00;6.80;56.20
5466;DHT22;2755;50.728;7.108;2023-11-18T11:42:31;7.20;56.80
5466;DHT22;2755;50.728;7.108;2023-11-18T11:50:15;7.10;58.80
5466;DHT22;2755;50.728;7.108;2023-11-18T11:52:51;7.00;57.70
5466;DHT22;2755;50.728;7.108;2023-11-18T11:57:55;7.20;58.90
5466;DHT22;2755;50.728;7.108;2023-11-18T12:00:23;7.10;61.00
5466;DHT22;2755;50.728;7.108;2023-11-18T12:02:52;7.60;59.00
5466;DHT22;2755;50.728;7.108;2023-11-18T12:05:25;7.30;54.50
5466;DHT22;2755;50.728;7.108;2023-11-18T12:07:55;7.40;51.00
5466;DHT22;2755;50.728;7.108;2023-11-18T12:10:21;7.50;55.90
5466;DHT22;2755;50.728;7.108;2023-11-18T12:13:07;7.50;53.20
5466;DHT22;2755;50.728;7.108;2023-11-18T12:15:53;7.30;55.50
5466;DHT22;2755;50.728;7.108;2023-11-18T12:18:31;7.20;56.50
5466;DHT22;2755;50.728;7.108;2023-11-18T12:20:59;7.30;54.90
5466;DHT22;2755;50.728;7.108;2023-11-18T12:25:56;7.70;57.50
5466;DHT22;2755;50.728;7.108;2023-11-18T12:28:27;7.40;57.70
5466;DHT22;2755;50.728;7.108;2023-11-18T12:33:24;7.50;51.90
5466;DHT22;2755;50.728;7.108;2023-11-18T12:38:45;7.40;54.20
5466;DHT22;2755;50.728;7.108;2023-11-18T12:46:52;6.90;59.50
5466;DHT22;2755;50.728;7.108;2023-11-18T12:49:24;7.50;53.90
5466;DHT22;2755;50.728;7.108;2023-11-18T12:51:51;7.80;54.60
5466;DHT22;2755;50.728;7.108;2023-11-18T12:54:19;7.50;53.80
5466;DHT22;2755;50.728;7.108;2023-11-18T12:56:46;7.60;54.70
5466;DHT22;2755;50.728;7.108;2023-11-18T12:59:17;7.50;53.20
5466;DHT22;2755;50.728;7.108;2023-11-18T13:01:53;7.50;53.00
5466;DHT22;2755;50.728;7.108;2023-11-18T13:06:50;7.80;55.00
5466;DHT22;2755;50.728;7.108;2023-11-18T13:09:17;7.50;54.20
5466;DHT22;2755;50.728;7.108;2023-11-18T13:11:55;7.50;55.10
5466;DHT22;2755;50.728;7.108;2023-11-18T13:14:23;7.40;58.60
5466;DHT22;2755;50.728;7.108;2023-11-18T13:16:54;7.60;59.50
5466;DHT22;2755;50.728;7.108;2023-11-18T13:19:26;7.30;62.70
5466;DHT22;2755;50.728;7.108;2023-11-18T13:21:56;7.10;62.50
5466;DHT22;2755;50.728;7.108;2023-11-18T13:24:22;7.70;70.00
5466;DHT22;2755;50.728;7.108;2023-11-18T13:26:48;7.60;69.20
5466;DHT22;2755;50.728;7.108;2023-11-18T13:29:14;7.50;67.00
5466;DHT22;2755;50.728;7.108;2023-11-18T13:31:40;7.50;69.10
5466;DHT22;2755;50.728;7.108;2023-11-18T13:34:06;7.50;68.80
5466;DHT22;2755;50.728;7.108;2023-11-18T13:36:32;7.00;74.80
5466;DHT22;2755;50.728;7.108;2023-11-18T13:41:31;7.80;73.50
5466;DHT22;2755;50.728;7.108;2023-11-18T13:43:57;7.50;78.40
5466;DHT22;2755;50.728;7.108;2023-11-18T13:46:24;7.60;80.50
5466;DHT22;2755;50.728;7.108;2023-11-18T13:48:51;7.80;77.40
5466;DHT22;2755;50.728;7.108;2023-11-18T13:51:19;7.70;76.20
5466;DHT22;2755;50.728;7.108;2023-11-18T13:56:12;7.40;77.80
5466;DHT22;2755;50.728;7.108;2023-11-18T13:58:39;7.60;78.90
5466;DHT22;2755;50.728;7.108;2023-11-18T14:01:05;7.40;83.10
5466;DHT22;2755;50.728;7.108;2023-11-18T14:03:33;7.50;85.60
5466;DHT22;2755;50.728;7.108;2023-11-18T14:06:00;7.10;83.40
5466;DHT22;2755;50.728;7.108;2023-11-18T14:08:28;7.30;80.20
5466;DHT22;2755;50.728;7.108;2023-11-18T14:10:55;7.50;84.60
5466;DHT22;2755;50.728;7.108;2023-11-18T14:13:20;7.70;77.50
5466;DHT22;2755;50.728;7.108;2023-11-18T14:15:47;7.80;81.40
5466;DHT22;2755;50.728;7.108;2023-11-18T14:20:40;7.90;83.00
5466;DHT22;2755;50.728;7.108;2023-11-18T14:23:06;7.50;88.50
5466;DHT22;2755;50.728;7.108;2023-11-18T14:25:32;7.60;92.00
5466;DHT22;2755;50.728;7.108;2023-11-18T14:27:58;8.70;92.50
5466;DHT22;2755;50.728;7.108;2023-11-18T14:30:23;6.80;91.40
5466;DHT22;2755;50.728;7.108;2023-11-18T14:32:52;7.70;90.30
5466;DHT22;2755;50.728;7.108;2023-11-18T14:37:46;7.30;92.50
5466;DHT22;2755;50.728;7.108;2023-11-18T14:40:13;7.60;92.80
5466;DHT22;2755;50.728;7.108;2023-11-18T14:42:46;7.50;91.70
5466;DHT22;2755;50.728;7.108;2023-11-18T14:45:16;7.50;91.60
5466;DHT22;2755;50.728;7.108;2023-11-18T14:47:42;7.40;92.20
5466;DHT22;2755;50.728;7.108;2023-11-18T14:50:14;7.40;93.70
5466;DHT22;2755;50.728;7.108;2023-11-18T14:52:52;7.30;94.70
5466;DHT22;2755;50.728;7.108;2023-11-18T14:55:24;7.70;95.90
5466;DHT22;2755;50.728;7.108;2023-11-18T14:57:51;7.30;97.00
5466;DHT22;2755;50.728;7.108;2023-11-18T15:00:19;7.30;97.40
5466;DHT22;2755;50.728;7.108;2023-11-18T15:02:47;7.30;97.70
5466;DHT22;2755;50.728;7.108;2023-11-18T15:05:18;7.30;98.50
5466;DHT22;2755;50.728;7.108;2023-11-18T15:07:48;7.10;99.50
5466;DHT22;2755;50.728;7.108;2023-11-18T15:10:23;7.00;99.90
5466;DHT22;2755;50.728;7.108;2023-11-18T15:12:54;7.30;99.90
5466;DHT22;2755;50.728;7.108;2023-11-18T15:15:21;7.20;99.90
5466;DHT22;2755;50.728;7.108;2023-11-18T15:17:48;7.10;99.90
5466;DHT22;2755;50.728;7.108;2023-11-18T15:20:17;7.80;99.90
5466;DHT22;2755;50.728;7.108;2023-11-18T15:22:49;7.50;99.90
5466;DHT22;2755;50.728;7.108;2023-11-18T15:30:10;7.00;99.90
5466;DHT22;2755;50.728;7.108;2023-11-18T15:32:37;7.20;99.90
5466;DHT22;2755;50.728;7.108;2023-11-18T15:37:37;7.10;99.90
5466;DHT22;2755;50.728;7.108;2023-11-18T15:40:07;7.10;99.90
5466;DHT22;2755;50.728;7.108;2023-11-18T15:42:43;6.70;99.90
5466;DHT22;2755;50.728;7.108;2023-11-18T15:45:21;7.20;99.90
5466;DHT22;2755;50.728;7.108;2023-11-18T15:47:51;7.20;99.90
5466;DHT22;2755;50.728;7.108;2023-11-18T15:55:13;7.00;99.90
5466;DHT22;2755;50.728;7.108;2023-11-18T15:57:40;7.00;99.90
5466;DHT22;2755;50.728;7.108;2023-11-18T16:00:07;7.10;99.90
5466;DHT22;2755;50.728;7.108;2023-11-18T16:02:54;7.20;99.90
5466;DHT22;2755;50.728;7.108;2023-11-18T16:05:24;7.20;99.90
5466;DHT22;2755;50.728;7.108;2023-11-18T16:07:51;6.90;99.90
5466;DHT22;2755;50.728;7.108;2023-11-18T16:10:18;7.20;99.90
5466;DHT22;2755;50.728;7.108;2023-11-18T16:12:57;7.20;99.90
5466;DHT22;2755;50.728;7.108;2023-11-18T16:20:22;7.20;99.90
5466;DHT22;2755;50.728;7.108;2023-11-18T16:22:49;7.20;99.90
5466;DHT22;2755;50.728;7.108;2023-11-18T16:25:19;7.10;99.90
5466;DHT22;2755;50.728;7.108;2023-11-18T16:27:50;7.20;99.90
5466;DHT22;2755;50.728;7.108;2023-11-18T16:30:17;6.90;99.90
5466;DHT22;2755;50.728;7.108;2023-11-18T16:32:43;7.20;99.90
5466;DHT22;2755;50.728;7.108;2023-11-18T16:35:10;7.10;99.90
5466;DHT22;2755;50.728;7.108;2023-11-18T16:37:40;7.00;99.90
5466;DHT22;2755;50.728;7.108;2023-11-18T16:40:06;7.20;99.90
5466;DHT22;2755;50.728;7.108;2023-11-18T16:49:51;7.00;99.90
5466;DHT22;2755;50.728;7.108;2023-11-18T16:54:43;7.20;99.90
5466;DHT22;2755;50.728;7.108;2023-11-18T17:02:01;7.30;99.90
5466;DHT22;2755;50.728;7.108;2023-11-18T17:04:31;7.10;99.90
5466;DHT22;2755;50.728;7.108;2023-11-18T17:06:57;6.90;99.90
5466;DHT22;2755;50.728;7.108;2023-11-18T17:09:23;6.70;99.90
5466;DHT22;2755;50.728;7.108;2023-11-18T17:11:48;7.40;99.90
5466;DHT22;2755;50.728;7.108;2023-11-18T17:14:14;6.90;99.90
5466;DHT22;2755;50.728;7.108;2023-11-18T17:16:40;7.20;99.90
5466;DHT22;2755;50.728;7.108;2023-11-18T17:19:08;7.10;99.90
5466;DHT22;2755;50.728;7.108;2023-11-18T17:21:34;7.80;99.90
5466;DHT22;2755;50.728;7.108;2023-11-18T17:24:00;7.10;99.90
5466;DHT22;2755;50.728;7.108;2023-11-18T17:31:18;7.20;99.90
5466;DHT22;2755;50.728;7.108;2023-11-18T17:33:44;7.30;99.90
5466;DHT22;2755;50.728;7.108;2023-11-18T17:38:37;7.50;99.90
5466;DHT22;2755;50.728;7.108;2023-11-18T17:43:29;7.20;99.90
5466;DHT22;2755;50.728;7.108;2023-11-18T17:45:54;7.70;99.90
5466;DHT22;2755;50.728;7.108;2023-11-18T17:48:20;7.20;99.90
5466;DHT22;2755;50.728;7.108;2023-11-18T17:55:38;7.40;99.90
5466;DHT22;2755;50.728;7.108;2023-11-18T17:58:03;7.50;99.90
5466;DHT22;2755;50.728;7.108;2023-11-18T18:00:29;7.10;99.90
5466;DHT22;2755;50.728;7.108;2023-11-18T18:05:21;7.00;99.90
5466;DHT22;2755;50.728;7.108;2023-11-18T18:07:50;7.40;99.90
5466;DHT22;2755;50.728;7.108;2023-11-18T18:10:15;7.20;99.90
5466;DHT22;2755;50.728;7.108;2023-11-18T18:15:09;7.80;99.90
5466;DHT22;2755;50.728;7.108;2023-11-18T18:17:37;7.20;99.90
5466;DHT22;2755;50.728;7.108;2023-11-18T18:20:04;7.60;99.90
5466;DHT22;2755;50.728;7.108;2023-11-18T18:22:37;7.70;99.90
5466;DHT22;2755;50.728;7.108;2023-11-18T18:25:03;7.30;99.90
5466;DHT22;2755;50.728;7.108;2023-11-18T18:27:28;7.90;99.90
5466;DHT22;2755;50.728;7.108;2023-11-18T18:29:54;7.60;99.90
5466;DHT22;2755;50.728;7.108;2023-11-18T18:32:20;7.60;99.90
5466;DHT22;2755;50.728;7.108;2023-11-18T18:34:45;7.30;99.90
5466;DHT22;2755;50.728;7.108;2023-11-18T18:37:11;7.70;99.90
5466;DHT22;2755;50.728;7.108;2023-11-18T18:39:39;7.60;99.90
5466;DHT22;2755;50.728;7.108;2023-11-18T18:51:49;7.60;99.90
5466;DHT22;2755;50.728;7.108;2023-11-18T18:54:16;8.60;99.90
5466;DHT22;2755;50.728;7.108;2023-11-18T18:59:08;7.60;99.90
5466;DHT22;2755;50.728;7.108;2023-11-18T19:06:28;7.90;99.90
5466;DHT22;2755;50.728;7.108;2023-11-18T19:08:56;7.70;99.90
5466;DHT22;2755;50.728;7.108;2023-11-18T19:11:22;8.10;99.90
5466;DHT22;2755;50.728;7.108;2023-11-18T19:13:47;7.90;99.90
5466;DHT22;2755;50.728;7.108;2023-11-18T19:18:39;8.00;99.90
5466;DHT22;2755;50.728;7.108;2023-11-18T19:21:05;7.40;99.90
5466;DHT22;2755;50.728;7.108;2023-11-18T19:23:33;8.40;99.90
5466;DHT22;2755;50.728;7.108;2023-11-18T19:25:59;8.90;99.90
5466;DHT22;2755;50.728;7.108;2023-11-18T19:28:25;8.40;99.90